Terminal Aerodrome Forecast
Issued by NWS Sterling, VA

Current Version | Previous Version | Graphics & Text | Print | Product List | Glossary On
Versions: 1 2 3 4 5 6 7 8 9 10 11 12 13
000
FTUS41 KLWX 251720
TAFMRB
TAF
KMRB 251720Z 2518/2618 25006KT P6SM BKN050
     FM252000 25006KT P6SM SCT060
     FM260300 VRB03KT P6SM VCTS SCT050CB
     FM260600 VRB03KT P6SM SCT250
     FM261500 31007KT P6SM SCT250=

USA.gov is the U.S. government's official web portal to all federal, state and local government web resources and services.